createdAt,value
2023-02-01T00:03:10.838Z,99502.16
2023-02-01T00:10:29.009Z,99494.22
2023-02-01T00:17:47.142Z,99485.03
2023-02-01T00:25:07.947Z,99493.88
2023-02-01T00:32:26.115Z,99502.84
2023-02-01T00:39:44.379Z,99501.56
2023-02-01T00:47:04.333Z,99508.13
2023-02-01T00:54:22.624Z,99495.03
2023-02-01T01:01:41.314Z,99499.16
2023-02-01T01:09:02.418Z,99503.25
2023-02-01T01:16:21.771Z,99503.84
2023-02-01T01:23:40.287Z,99483.81
2023-02-01T01:31:00.048Z,99506.06
2023-02-01T01:38:18.419Z,99495.59
2023-02-01T01:45:37.175Z,99503.25
2023-02-01T02:02:31.374Z,99524.63
2023-02-01T02:09:59.870Z,99528.53
2023-02-01T02:17:28.045Z,99521.31
2023-02-01T02:25:09.779Z,99517.78
2023-02-01T02:32:51.428Z,99511.25
2023-02-01T02:40:16.854Z,99513.13
2023-02-01T02:47:39.275Z,99518.59
2023-02-01T02:54:59.251Z,99522.31
2023-02-01T03:02:37.431Z,99517.91
2023-02-01T03:09:55.790Z,99523.28
2023-02-01T03:17:19.972Z,99523.94
2023-02-01T03:24:39.719Z,99531.47
2023-02-01T03:31:58.327Z,99528.09
2023-02-01T03:39:21.571Z,99533.81
2023-02-01T03:46:42.613Z,99520.69
2023-02-01T03:54:05.960Z,99530.28
2023-02-01T04:01:25.620Z,99519.16
2023-02-01T04:08:43.885Z,99492.97
2023-02-01T04:16:02.133Z,99495.34
2023-02-01T04:23:21.722Z,99491.34
2023-02-01T04:30:39.971Z,99496.53
2023-02-01T04:37:58.169Z,99493.19
2023-02-01T04:45:18.024Z,99473.50
2023-02-01T05:02:11.447Z,99494.81
2023-02-01T05:09:29.625Z,99492.16
2023-02-01T05:16:47.808Z,99493.41
2023-02-01T05:24:17.553Z,99469.38
2023-02-01T05:31:36.035Z,99488.13
2023-02-01T05:38:54.267Z,99485.78
2023-02-01T05:46:14.235Z,99473.59
2023-02-01T05:53:32.554Z,99460.53
2023-02-01T06:00:51.707Z,99452.59
2023-02-01T06:08:11.300Z,99443.41
2023-02-01T06:15:29.488Z,99432.38
2023-02-01T06:32:21.565Z,99438.75
2023-02-01T06:39:39.873Z,99449.69
2023-02-01T06:46:58.056Z,99444.91
2023-02-01T06:54:17.849Z,99472.31
2023-02-01T07:01:36.940Z,99461.81
2023-02-01T07:08:56.897Z,99465.66
2023-02-01T07:16:18.404Z,99470.22
2023-02-01T07:23:37.056Z,99475.00
2023-02-01T07:30:55.207Z,99464.59
2023-02-01T07:38:17.379Z,99463.63
2023-02-01T07:45:37.048Z,99467.88
2023-02-01T08:02:29.705Z,99452.00
2023-02-01T08:09:47.927Z,99463.41
2023-02-01T08:17:06.210Z,99436.53
2023-02-01T08:24:26.022Z,99435.47
2023-02-01T08:31:44.629Z,99430.66
2023-02-01T08:39:06.881Z,99422.44
2023-02-01T08:46:26.512Z,99409.28
2023-02-01T08:53:45.175Z,99430.00
2023-02-01T09:01:06.840Z,99426.28
2023-02-01T09:08:26.431Z,99443.94
2023-02-01T09:15:44.692Z,99429.53
2023-02-01T09:23:02.889Z,99427.72
2023-02-01T09:30:22.893Z,99427.75
2023-02-01T09:37:41.363Z,99411.03
2023-02-01T09:45:16.980Z,99425.59
2023-02-01T09:52:41.192Z,99412.69
2023-02-01T10:00:02.763Z,99402.78
2023-02-01T10:07:38.255Z,99397.41
2023-02-01T10:15:03.401Z,99405.78
2023-02-01T10:22:52.176Z,99390.16
2023-02-01T10:30:21.451Z,99383.22
2023-02-01T10:37:42.068Z,99383.75
2023-02-01T10:45:02.156Z,99368.53
2023-02-01T10:52:24.686Z,99358.13
2023-02-01T10:59:45.013Z,99363.34
2023-02-01T11:07:11.263Z,99346.88
2023-02-01T11:14:39.507Z,99342.09
2023-02-01T11:22:00.099Z,99321.41
2023-02-01T11:29:21.408Z,99322.66
2023-02-01T11:36:41.378Z,99301.13
2023-02-01T11:44:00.992Z,99294.28
2023-02-01T11:51:29.302Z,99273.72
2023-02-01T11:59:12.115Z,99271.13
2023-02-01T12:06:35.281Z,99274.97
2023-02-01T12:14:00.744Z,99269.91
2023-02-01T12:21:29.188Z,99257.44
2023-02-01T12:29:10.167Z,99259.91
2023-02-01T12:36:34.704Z,99261.09
2023-02-01T12:43:57.295Z,99253.28
2023-02-01T12:51:18.120Z,99268.66
2023-02-01T12:58:43.610Z,99277.16
2023-02-01T13:06:06.171Z,99295.38
2023-02-01T13:13:28.717Z,99305.25
2023-02-01T13:20:52.214Z,99309.22
2023-02-01T13:28:13.213Z,99313.47
2023-02-01T13:35:56.400Z,99313.06
2023-02-01T13:43:17.092Z,99316.75
2023-02-01T13:50:38.657Z,99321.00
2023-02-01T13:58:06.002Z,99315.78
2023-02-01T14:06:00.424Z,99317.31
2023-02-01T14:13:29.519Z,99309.00
2023-02-01T14:20:54.332Z,99315.34
2023-02-01T14:28:26.251Z,99326.59
2023-02-01T14:35:44.893Z,99323.31
2023-02-01T14:43:02.998Z,99321.13
2023-02-01T14:50:28.737Z,99317.13
2023-02-01T14:57:49.883Z,99338.78
2023-02-01T15:05:25.292Z,99328.88
2023-02-01T15:12:45.531Z,99336.31
2023-02-01T15:20:09.053Z,99326.19
2023-02-01T15:27:29.523Z,99337.28
2023-02-01T15:34:49.098Z,99345.94
2023-02-01T15:42:16.683Z,99347.03
2023-02-01T15:49:41.035Z,99345.81
2023-02-01T15:57:02.845Z,99337.28
2023-02-01T16:04:23.228Z,99344.28
2023-02-01T16:11:53.957Z,99346.34
2023-02-01T16:19:12.204Z,99342.88
2023-02-01T16:26:30.488Z,99341.88
2023-02-01T16:33:51.600Z,99352.56
2023-02-01T16:41:13.674Z,99348.88
2023-02-01T16:48:33.141Z,99330.81
2023-02-01T16:55:53.496Z,99332.72
2023-02-01T17:03:13.844Z,99333.59
2023-02-01T17:10:34.018Z,99311.25
2023-02-01T17:17:55.957Z,99315.53
2023-02-01T17:25:17.352Z,99305.75
2023-02-01T17:32:35.605Z,99291.91
2023-02-01T17:39:57.030Z,99275.31
2023-02-01T17:47:15.297Z,99272.16
2023-02-01T17:54:33.804Z,99264.94
2023-02-01T18:01:53.730Z,99266.75
2023-02-01T18:09:12.209Z,99258.72
2023-02-01T18:16:32.251Z,99259.19
2023-02-01T18:23:52.000Z,99243.88
2023-02-01T18:31:22.363Z,99212.78
2023-02-01T18:38:40.645Z,99208.81
2023-02-01T18:46:00.314Z,99201.41
2023-02-01T18:53:20.418Z,99173.63
2023-02-01T19:00:38.579Z,99146.41
2023-02-01T19:07:58.250Z,99139.00
2023-02-01T19:15:16.913Z,99133.81
2023-02-01T19:22:35.393Z,99126.41
2023-02-01T19:29:55.144Z,99114.09
2023-02-01T19:37:13.337Z,99112.44
2023-02-01T19:44:32.586Z,99104.47
2023-02-01T19:51:52.128Z,99081.59
2023-02-01T19:59:10.450Z,99081.44
2023-02-01T20:06:27.925Z,99100.78
2023-02-01T20:13:47.755Z,99092.75
2023-02-01T20:21:06.438Z,99093.28
2023-02-01T20:28:25.622Z,99112.00
2023-02-01T20:35:46.836Z,99098.34
2023-02-01T20:43:05.117Z,99125.75
2023-02-01T20:50:25.252Z,99128.59
2023-02-01T20:57:45.295Z,99134.63
2023-02-01T21:05:03.488Z,99145.53
2023-02-01T21:12:21.858Z,99176.66
2023-02-01T21:19:44.118Z,99184.25
2023-02-01T21:27:02.439Z,99190.84
2023-02-01T21:34:20.752Z,99201.53
2023-02-01T21:50:18.185Z,99226.28
2023-02-01T21:57:37.995Z,99227.97
2023-02-01T22:04:57.810Z,99218.22
2023-02-01T22:12:16.190Z,99244.16
2023-02-01T22:19:35.887Z,99253.16
2023-02-01T22:35:50.732Z,99267.13
2023-02-01T22:43:09.029Z,99264.50
2023-02-01T22:50:27.253Z,99265.03
2023-02-01T22:57:46.770Z,99260.84
2023-02-01T23:05:05.329Z,99281.94
2023-02-01T23:12:23.480Z,99284.84
2023-02-01T23:19:43.107Z,99284.25
2023-02-01T23:27:02.629Z,99295.66
2023-02-01T23:34:20.867Z,99279.38
2023-02-01T23:41:40.550Z,99273.66
2023-02-01T23:48:59.173Z,99270.88
2023-02-01T23:56:22.718Z,99270.31
